Terminal Aerodrome Forecast
Issued by NWS Sioux Falls, SD

Home | Current Version | Previous Version | Text Only | Print | Product List | Glossary On
Versions: 1 2 3 4 5 6 7 8 9 10 11 12 13 14 15 16 17 18 19 20 21
000
FTUS43 KFSD 251730
TAFHON
TAF
KHON 251730Z 2518/2618 34005KT P6SM BKN007 OVC025
      TEMPO 2518/2520 SCT008
     FM252000 VRB04KT P6SM BKN025
     FM260100 18007KT P6SM SCT025 BKN100
     FM260800 26012KT P6SM BKN100
     FM261100 31014G20KT P6SM SKC=

USA.gov is the U.S. government's official web portal to all federal, state and local government web resources and services.